Latest Coastal Weather Observations for King Island Airport

IDT60701

Issued at 12:22 am EST Thursday 1 September 2016 (issued every 10 minutes, with the page automatically refreshed every 10 minutes)

About coastal observations | Map of coastal stations | Coastal observations for TAS | Marine services | Other Formats
Station Details ID: 098017 Name: KING ISLAND AIRPORT Lat: -39.88 Lon: 143.88 Height: 37.0 m
Data from the previous 72 hours. | See also: Recent months at King Island Airport
Date/Time
EST
Temp
°C
Wind Pressure Rain since
9am
mm
Weather Cloud Vis
km
Sea
Height
m
Swell
Dir  Spd
kts
Gust
kts
hPa Trend Height
m
Period
s
Dir
01/12:00am 11.7 W 10 15 1015.3 - 0.0 - Cloudy 10 - - - -
 
Date/Time
EST
Temp
°C
Wind Pressure Rain since
9am
mm
Weather Cloud Vis
km
Sea
Height
m
Swell
Dir  Spd
kts
Gust
kts
hPa Trend Height
m
Period
s
Dir
31/11:30pm 11.5 W 12 15 1015.3 - 0.0 - Cloudy 10 - - - -
31/11:00pm 11.6 WSW 14 19 1015.1 - 0.0 - Cloudy 10 - - - -
31/10:30pm 11.8 WSW 13 20 1015.1 - 0.0 - Partly cloudy 10 - - - -
31/10:00pm 12.2 WSW 12 16 1014.9 - 0.0 - Cloudy 10 - - - -
31/09:30pm 12.1 W 14 19 1014.8 - 0.0 - Cloudy 10 - - - -
31/09:00pm 12.2 W 15 20 1014.5 - 0.0 - Cloudy 10 - - - -
31/08:30pm 12.2 WSW 14 19 1014.3 - 0.0 - Cloudy 10 - - - -
31/08:00pm 12.1 W 12 18 1013.9 - 0.0 - Partly cloudy 10 - - - -
31/07:30pm 12.5 W 13 18 1013.4 - 0.0 - Partly cloudy 10 - - - -
31/07:00pm 12.6 W 12 17 1013.0 - 0.0 - Partly cloudy 10 - - - -
31/06:30pm 12.6 W 13 20 1012.6 - 0.0 - Partly cloudy 10 - - - -
31/06:00pm 12.3 W 11 16 1012.3 - 0.0 - Mostly clear 10 - - - -
31/05:30pm 12.9 W 13 20 1011.9 - 0.0 - Partly cloudy 10 - - - -
31/05:00pm 13.4 W 15 21 1011.6 - 0.0 - Partly cloudy 10 - - - -
31/04:37pm 13.4 W 16 21 1011.4 - 0.0 - Partly cloudy 10 - - - -
31/04:30pm 13.7 W 16 21 1011.3 - 0.0 - Partly cloudy 10 - - - -
31/04:00pm 13.7 W 16 22 1011.0 - 0.0 - Partly cloudy 10 - - - -
31/03:30pm 14.1 WNW 17 22 1010.8 - 0.0 - Partly cloudy 10 - - - -
31/03:00pm 13.8 WNW 19 27 1010.6 - 0.0 - Cloudy 10 - - - -
31/02:41pm 14.4 WNW 19 25 1010.4 - 0.0 - Partly cloudy 10 - - - -
31/02:31pm 14.7 WNW 19 26 1010.4 - 0.0 - Partly cloudy 10 - - - -
31/02:30pm 14.6 WNW 19 26 1010.4 - 0.0 - Partly cloudy 10 - - - -
31/02:00pm 14.4 WNW 19 26 1010.2 - 0.0 - Partly cloudy 10 - - - -
31/01:30pm 14.5 WNW 19 23 1010.2 - 0.0 - Partly cloudy 10 - - - -
31/01:19pm 14.4 WNW 17 21 1010.3 - 0.0 - Partly cloudy 10 - - - -
31/01:00pm 15.2 WNW 17 20 1010.4 - 0.0 - Partly cloudy 10 - - - -
31/12:30pm 14.1 NW 18 22 1010.7 - 0.0 - Cloudy 10 - - - -
31/12:00pm 14.7 NW 18 23 1010.8 - 0.0 - Mostly cloudy 10 - - - -
31/11:30am 15.1 NW 17 21 1010.9 - 0.0 - Partly cloudy 10 - - - -
31/11:16am 14.9 NW 16 20 1010.9 - 0.0 - Partly cloudy 10 - - - -
31/11:05am 15.4 NW 18 22 1010.9 - 0.0 - Partly cloudy 10 - - - -
31/11:00am 14.8 NW 18 22 1011.0 - 0.0 - Partly cloudy 10 - - - -
31/10:49am 14.9 NW 19 24 1011.0 - 0.0 - Partly cloudy 10 - - - -
31/10:48am 14.6 NW 19 24 1011.0 - 0.0 - Partly cloudy 10 - - - -
31/10:30am 14.7 NW 19 22 1011.0 - 0.0 - Partly cloudy 10 - - - -
31/10:00am 13.4 NNW 16 20 1011.1 - 0.0 - Partly cloudy 10 - - - -
31/09:30am 13.7 NW 13 16 1011.0 - 0.0 - Partly cloudy 10 - - - -
31/09:17am 13.7 NNW 13 17 1011.0 - 0.0 - Partly cloudy 10 - - - -
31/09:00am 13.6 NNW 11 14 1011.0 - 5.4 - Cloudy 10 - - - -
31/08:30am 13.5 NNW 13 16 1011.0 - 5.4 - Partly cloudy 10 - - - -
31/08:25am 13.5 NNW 12 16 1011.0 - 5.4 - Partly cloudy 10 - - - -
31/08:00am 13.5 NNW 12 15 1010.9 - 5.4 - Cloudy 10 - - - -
31/07:31am 12.9 NNW 9 11 1010.9 - 5.4 - Partly cloudy 10 - - - -
31/07:30am 12.9 NNW 9 11 1010.9 - 5.4 - Partly cloudy 10 - - - -
31/07:00am 12.5 N 7 10 1010.6 - 5.4 - Cloudy 8 - - - -
31/06:30am 12.3 N 11 15 1010.4 - 5.4 - Partly cloudy 10 - - - -
31/06:00am 12.7 NNW 13 17 1010.1 - 4.8 Rain Cloudy 7 - - - -
31/05:30am 11.1 NNE 4 6 1009.7 - 4.0 - Partly cloudy 10 - - - -
31/05:00am 10.6 NE 5 5 1009.5 - 4.0 - Partly cloudy 10 - - - -
31/04:30am 11.3 NNE 4 5 1009.7 - 4.0 - Partly cloudy 10 - - - -
31/04:00am 11.8 N 8 10 1009.8 - 4.0 - Partly cloudy 10 - - - -
31/03:30am 11.9 N 8 10 1010.3 - 4.0 - Partly cloudy 10 - - - -
31/03:00am 12.0 N 7 9 1010.4 - 4.0 - Cloudy 9 - - - -
31/02:35am 12.4 NNW 6 8 1010.6 - 4.0 - Partly cloudy 10 - - - -
31/02:30am 12.6 NNW 7 9 1010.6 - 4.0 - Partly cloudy 10 - - - -
31/02:00am 12.9 NNW 9 11 1011.0 - 4.0 - Cloudy 10 - - - -
31/01:30am 12.8 NNW 10 14 1011.2 - 4.0 - Partly cloudy 10 - - - -
31/01:28am 12.8 NNW 10 14 1011.2 - 4.0 - Partly cloudy 10 - - - -
31/01:06am 12.7 NNW 8 10 1011.2 - 4.0 - Partly cloudy 10 - - - -
31/01:00am 12.6 NNW 7 9 1011.2 - 4.0 - Partly cloudy 10 - - - -
31/12:30am 12.7 NNW 11 15 1011.3 - 3.8 - Partly cloudy 10 - - - -
31/12:00am 12.7 NNW 12 15 1011.4 - 3.8 Drizzle Cloudy 7 - - - -
 
Date/Time
EST
Temp
°C
Wind Pressure Rain since
9am
mm
Weather Cloud Vis
km
Sea
Height
m
Swell
Dir  Spd
kts
Gust
kts
hPa Trend Height
m
Period
s
Dir
30/11:30pm 12.6 N 8 11 1011.5 - 3.8 - Partly cloudy 10 - - - -
30/11:29pm 12.6 N 8 11 1011.5 - 3.8 - Partly cloudy 10 - - - -
30/11:10pm 12.6 N 9 11 1011.7 - 3.8 - Partly cloudy 5 - - - -
30/11:00pm 12.6 N 9 11 1011.8 - 3.8 - Partly cloudy 10 - - - -
30/10:30pm 12.6 N 9 13 1011.9 - 3.6 - Partly cloudy 10 - - - -
30/10:14pm 12.6 N 12 16 1012.0 - 3.6 - Cloudy 8 - - - -
30/10:00pm 12.6 NNW 12 18 1012.0 - 3.6 - Cloudy 4 - - - -
30/09:30pm 12.4 N 9 13 1012.2 - 3.4 - Partly cloudy 5 - - - -
30/09:00pm 12.4 NNE 9 13 1012.3 - 3.0 Recent precip. Cloudy 5 - - - -
30/08:58pm 12.3 NNE 9 13 1012.3 - 3.0 - Cloudy 5 - - - -
30/08:50pm 12.2 NNE 9 11 1012.3 - 3.0 - Partly cloudy 7 - - - -
30/08:32pm 12.2 NNE 9 11 1012.4 - 2.8 - Partly cloudy 5 - - - -
30/08:30pm 12.1 NNE 9 11 1012.4 - 2.8 - Partly cloudy 6 - - - -
30/08:28pm 12.1 NNE 9 11 1012.3 - 2.8 - Partly cloudy 7 - - - -
30/08:06pm 12.1 NNE 10 14 1012.4 - 2.8 - Partly cloudy 4 - - - -
30/08:00pm 12.1 NNE 11 15 1012.4 - 2.8 - Partly cloudy 4 - - - -
30/07:55pm 12.1 NNE 13 18 1012.5 - 2.8 - Partly cloudy 5 - - - -
30/07:52pm 12.1 NNE 13 18 1012.5 - 2.8 - Partly cloudy 7 - - - -
30/07:39pm 12.1 NNE 13 17 1012.5 - 2.8 - Partly cloudy 5 - - - -
30/07:30pm 12.1 NE 12 16 1012.5 - 2.6 - Partly cloudy 7 - - - -
30/07:25pm 12.1 NE 11 15 1012.5 - 2.6 - Partly cloudy 7 - - - -
30/07:00pm 12.0 NE 14 19 1012.5 - 2.4 - Partly cloudy 5 - - - -
30/06:46pm 12.0 NE 14 18 1012.4 - 2.2 - Partly cloudy 5 - - - -
30/06:37pm 12.0 NE 14 18 1012.4 - 2.0 - Partly cloudy 5 - - - -
30/06:32pm 12.0 NE 14 18 1012.3 - 2.0 - Partly cloudy 9 - - - -
30/06:30pm 12.0 NE 14 18 1012.3 - 2.0 - Partly cloudy 10 - - - -
30/06:00pm 12.0 NE 14 20 1012.4 - 2.0 Showers Mostly cloudy 9 - - - -
30/05:30pm 12.1 NE 14 18 1012.3 - 1.4 - Cloudy 9 - - - -
30/05:00pm 12.1 NE 14 20 1012.3 - 1.2 - Cloudy 10 - - - -
30/04:30pm 12.0 NE 15 20 1012.6 - 1.2 - Partly cloudy 10 - - - -
30/04:00pm 12.1 NE 16 21 1013.3 - 0.8 - Partly cloudy 8 - - - -
30/03:30pm 12.1 NE 13 18 1013.2 - 0.2 - Partly cloudy 10 - - - -
30/03:00pm 12.3 NE 16 21 1014.0 - 0.0 Showers Cloudy 10 - - - -
30/02:30pm 12.5 NE 18 24 1014.6 - 0.0 - Cloudy 10 - - - -
30/02:00pm 13.2 NNE 17 24 1014.8 - 0.0 - Partly cloudy 10 - - - -
30/01:30pm 13.3 NE 17 24 1015.2 - 0.0 - Partly cloudy 10 - - - -
30/01:00pm 13.5 NE 19 27 1015.8 - 0.0 - Partly cloudy 10 - - - -
30/12:30pm 14.0 NNE 18 23 1016.3 - 0.0 - Partly cloudy 10 - - - -
30/12:00pm 14.1 NNE 18 27 1016.8 - 0.0 - Cloudy 10 - - - -
30/11:30am 14.4 NNE 19 26 1017.3 - 0.0 - Partly cloudy 10 - - - -
30/11:00am 14.2 NE 18 22 1017.5 - 0.0 - Partly cloudy 10 - - - -
30/10:30am 13.7 NE 13 18 1017.8 - 0.0 - Cloudy 10 - - - -
30/10:00am 13.7 NE 12 17 1018.0 - 0.0 - Cloudy 10 - - - -
30/09:30am 13.0 NE 10 14 1018.5 - 0.0 - Partly cloudy 10 - - - -
30/09:00am 12.5 NE 11 14 1019.2 - 0.0 Showers Cloudy 10 - - - -
30/08:30am 12.6 NE 10 14 1019.3 - 0.0 - Partly cloudy 10 - - - -
30/08:00am 12.3 ENE 12 16 1019.3 - 0.0 - Cloudy 10 - - - -
30/07:30am 12.1 ENE 10 16 1019.9 - 0.0 - Cloudy 10 - - - -
30/07:00am 11.7 ENE 10 13 1019.9 - 0.0 - Cloudy 10 - - - -
30/06:30am 11.7 ENE 9 12 1019.9 - 0.0 - Partly cloudy 10 - - - -
30/06:00am 11.5 ENE 9 13 1019.8 - 0.0 - Cloudy 10 - - - -
30/05:30am 11.3 ENE 11 15 1019.7 - 0.0 - - 10 - - - -
30/05:00am 11.1 ENE 11 15 1019.6 - 0.0 - - 10 - - - -
30/04:30am 11.3 ENE 11 17 1020.1 - 0.0 - - 10 - - - -
30/04:00am 11.3 NE 11 15 1020.3 - 0.0 - - 10 - - - -
30/03:30am 11.2 ENE 9 14 1020.5 - 0.0 - - 10 - - - -
30/03:00am 11.5 NE 9 13 1020.9 - 0.0 - Partly cloudy 10 - - - -
30/02:30am 11.5 ENE 10 14 1020.6 - 0.0 - - 10 - - - -
30/02:00am 11.4 ENE 12 16 1020.7 - 0.0 - - 10 - - - -
30/01:30am 11.5 ENE 11 16 1020.7 - 0.0 - - 10 - - - -
30/01:00am 11.4 ENE 10 13 1021.2 - 0.0 - - 10 - - - -
30/12:30am 11.5 ENE 11 14 1021.3 - 0.0 - - 10 - - - -
30/12:00am 11.2 E 11 14 1021.3 - 0.0 - - 10 - - - -
 
Date/Time
EST
Temp
°C
Wind Pressure Rain since
9am
mm
Weather Cloud Vis
km
Sea
Height
m
Swell
Dir  Spd
kts
Gust
kts
hPa Trend Height
m
Period
s
Dir
29/11:30pm 11.3 ENE 11 15 1021.8 - 0.0 - - 10 - - - -
29/11:00pm 11.4 ENE 9 12 1022.2 - 0.0 - - 10 - - - -
29/10:30pm 11.5 E 11 15 1022.4 - 0.0 - - 10 - - - -
29/10:00pm 11.4 E 10 16 1022.6 - 0.0 - - 10 - - - -
29/09:30pm 11.6 E 11 15 1022.3 - 0.0 - - 10 - - - -
29/09:00pm 10.9 E 11 14 1021.8 - 0.0 - - 10 - - - -
29/08:30pm 10.7 E 9 12 1022.0 - 0.0 - - 10 - - - -
29/08:00pm 10.5 ESE 9 11 1022.0 - 0.0 - - 10 - - - -
29/07:30pm 10.7 E 9 10 1021.9 - 0.0 - - 10 - - - -
29/07:00pm 11.2 E 9 11 1021.8 - 0.0 - - 10 - - - -
29/06:30pm 11.6 E 9 11 1021.5 - 0.0 - - 10 - - - -
29/06:00pm 12.3 ESE 8 9 1021.4 - 0.0 - - 10 - - - -
29/05:30pm 14.3 ENE 7 9 1021.4 - 0.0 - - 10 - - - -
29/05:00pm 15.4 ENE 9 10 1021.4 - 0.0 - - 10 - - - -
29/04:30pm 15.3 NE 7 9 1021.2 - 0.0 - - 10 - - - -
29/04:00pm 16.3 NNE 8 10 1021.3 - 0.0 - - 10 - - - -
29/03:30pm 16.9 NNE 10 13 1021.4 - 0.0 - - 10 - - - -
29/03:00pm 17.1 NNE 10 13 1021.7 - 0.0 - - 10 - - - -
29/02:30pm 17.3 NNE 9 13 1021.7 - 0.0 - - 10 - - - -
29/02:00pm 17.0 NNE 9 12 1021.8 - 0.0 - - 10 - - - -
29/01:30pm 17.2 NNE 9 13 1021.9 - 0.0 - - 10 - - - -
29/01:00pm 17.1 NNE 9 11 1022.1 - 0.0 - - 10 - - - -
29/12:30pm 16.7 NE 9 10 1022.3 - 0.0 - - 10 - - - -
29/12:00pm 16.3 NE 9 11 1022.7 - 0.0 - - 10 - - - -
29/11:30am 15.6 ENE 9 13 1023.0 - 0.0 - - 10 - - - -
29/11:00am 15.0 ENE 11 14 1023.2 - 0.0 - - 10 - - - -
29/10:30am 14.3 ENE 11 17 1023.4 - 0.0 - - 10 - - - -
29/10:00am 13.8 ENE 13 17 1023.7 - 0.0 - Partly cloudy 10 - - - -
29/09:30am 12.7 ENE 14 18 1023.8 - 0.0 - Partly cloudy 10 - - - -
29/09:00am 12.2 ENE 13 16 1023.8 - 0.0 - Cloudy 10 - - - -
29/08:30am 11.6 ENE 11 15 1023.6 - 0.0 - - 10 - - - -
29/08:00am 10.7 ENE 11 15 1023.5 - 0.0 - - 10 - - - -
29/07:30am 9.6 E 10 13 1023.2 - 0.0 - - 10 - - - -
29/07:00am 9.0 E 9 11 1023.0 - 0.0 - - 10 - - - -
29/06:30am 9.1 E 9 12 1022.8 - 0.0 - - 10 - - - -
29/06:00am 9.0 ENE 8 10 1022.7 - 0.0 - Cloudy 10 - - - -
29/05:30am 8.3 E 9 11 1022.4 - 0.0 - - 10 - - - -
29/05:00am 7.7 E 7 9 1022.2 - 0.0 - - 10 - - - -
29/04:30am 7.1 E 6 7 1022.1 - 0.0 - - 10 - - - -
29/04:00am 6.8 E 7 7 1021.9 - 0.0 - - 10 - - - -
29/03:30am 6.1 E 7 8 1021.7 - 0.0 - - 10 - - - -
29/03:00am 5.9 E 7 8 1021.8 - 0.0 - Partly cloudy 10 - - - -
29/02:38am 6.0 E 7 7 1021.9 - 0.0 - - 10 - - - -
29/02:30am 6.3 ESE 7 8 1022.0 - 0.0 - - 6 - - - -
29/02:00am 6.0 ESE 7 8 1022.2 - 0.0 - - 5 - - - -
29/01:52am 5.8 E 6 8 1022.2 - 0.0 - - 5 - - - -
29/01:30am 5.7 E 6 7 1022.3 - 0.0 - - 10 - - - -
29/01:00am 6.2 ESE 7 8 1022.2 - 0.0 - - 8 - - - -
29/12:31am 5.8 E 7 7 1022.1 - 0.0 - - 10 - - - -
29/12:30am 5.8 ESE 7 7 1022.2 - 0.0 - - 10 - - - -

Other Formats:

Comma delimited format used in spreadsheet applications
http://www.bom.gov.au/fwo/IDT60701/IDT60701.94850.axf

JavaScript Object Notation format (JSON) in row-major order
http://www.bom.gov.au/fwo/IDT60701/IDT60701.94850.json